Time;durP1;ratioP1;P1;durP2;ratioP2;P2;SDS_P1;SDS_P2;PMS_P1;PMS_P2;Temp;Humidity;BMP_temperature;BMP_pressure;BME280_temperature;BME280_humidity;BME280_pressure;Samples;Min_cycle;Max_cycle;Signal;HPM_P1;HPM_P2
2023/07/16 00:00:46;;;;;;;6.63;2.47;;;;;;;18.01;75.08;100811.28;5030616;28;20024;-82
2023/07/16 00:03:13;;;;;;;7.78;2.38;;;;;;;18.05;74.71;100820.81;5027502;28;20057;-82
2023/07/16 00:05:39;;;;;;;8.23;2.55;;;;;;;17.95;74.14;100811.69;5027531;28;20029;-82
2023/07/16 00:08:04;;;;;;;6.25;2.35;;;;;;;17.85;74.24;100820.38;5025934;28;20477;-82
2023/07/16 00:10:30;;;;;;;7.30;2.30;;;;;;;17.83;74.69;100816.13;5021221;28;20037;-82
2023/07/16 00:12:56;;;;;;;5.97;2.10;;;;;;;17.79;74.56;100825.31;5031350;28;20021;-82
2023/07/16 00:15:21;;;;;;;10.15;2.40;;;;;;;17.69;73.90;100822.41;5027066;28;20030;-82
2023/07/16 00:17:47;;;;;;;8.07;2.67;;;;;;;17.71;74.22;100823.13;5027788;28;20464;-82
2023/07/16 00:20:12;;;;;;;7.90;2.50;;;;;;;17.72;73.80;100819.53;5028616;28;20033;-82
2023/07/16 00:22:38;;;;;;;10.52;2.40;;;;;;;17.68;73.93;100828.72;5021826;28;20032;-83
2023/07/16 00:25:05;;;;;;;8.13;2.22;;;;;;;17.67;74.53;100832.34;5020060;28;20075;-82
2023/07/16 00:27:30;;;;;;;9.85;2.25;;;;;;;17.66;74.77;100822.59;5023679;28;20041;-82
2023/07/16 00:29:56;;;;;;;7.35;2.22;;;;;;;17.65;74.34;100826.25;5020533;28;20064;-82
2023/07/16 00:32:21;;;;;;;7.55;2.45;;;;;;;17.67;74.51;100818.97;5021712;28;20045;-82
2023/07/16 00:34:46;;;;;;;8.73;2.35;;;;;;;17.76;73.46;100822.84;5026830;28;20032;-83
2023/07/16 00:37:11;;;;;;;7.93;2.47;;;;;;;17.62;74.59;100821.09;5032434;28;20025;-82
2023/07/16 00:39:37;;;;;;;10.35;2.67;;;;;;;17.65;74.50;100823.56;5027061;28;20029;-82
2023/07/16 00:42:02;;;;;;;8.55;2.55;;;;;;;17.65;73.62;100833.41;5020663;28;20556;-83
2023/07/16 00:44:28;;;;;;;8.40;2.60;;;;;;;17.76;74.14;100833.53;5020426;28;20082;-83
2023/07/16 00:46:53;;;;;;;8.20;2.45;;;;;;;17.63;74.67;100827.34;5025971;28;20057;-83
2023/07/16 00:49:18;;;;;;;8.05;2.55;;;;;;;17.71;73.97;100830.31;5026117;28;20034;-83
2023/07/16 00:51:44;;;;;;;9.80;2.50;;;;;;;17.68;74.45;100831.41;5023649;28;20024;-83
2023/07/16 00:54:09;;;;;;;9.32;2.63;;;;;;;17.72;73.65;100832.00;5036185;28;20022;-83
2023/07/16 00:56:37;;;;;;;12.40;2.40;;;;;;;17.72;73.36;100821.31;5034459;28;20452;-83
2023/07/16 00:59:02;;;;;;;10.20;2.28;;;;;;;17.76;73.47;100822.84;5016849;28;20103;-83
2023/07/16 01:01:28;;;;;;;7.90;2.13;;;;;;;17.76;73.94;100820.16;5020415;28;20069;-83
2023/07/16 01:03:54;;;;;;;7.13;2.13;;;;;;;17.63;73.69;100816.66;5028917;28;20025;-83
2023/07/16 01:06:34;;;;;;;5.80;2.38;;;;;;;17.49;74.87;100830.97;5030833;28;20040;-83
2023/07/16 01:09:07;;;;;;;7.07;2.13;;;;;;;17.33;75.34;100839.16;5021925;28;20025;-83
2023/07/16 01:11:35;;;;;;;6.47;2.53;;;;;;;17.23;75.64;100830.06;5033133;28;20037;-83
2023/07/16 01:14:01;;;;;;;4.75;2.00;;;;;;;17.22;75.42;100836.38;5028386;28;20026;-83
2023/07/16 01:16:27;;;;;;;5.28;2.40;;;;;;;17.15;75.74;100822.56;5021537;28;20642;-83
2023/07/16 01:18:52;;;;;;;6.65;2.30;;;;;;;17.22;75.81;100826.56;5030666;28;20116;-83
2023/07/16 01:21:20;;;;;;;6.25;2.13;;;;;;;17.17;76.30;100825.16;5022868;28;20095;-83
2023/07/16 01:23:46;;;;;;;5.80;2.63;;;;;;;17.34;75.30;100823.03;5020807;28;20048;-83
2023/07/16 01:26:44;;;;;;;7.10;2.53;;;;;;;17.41;74.45;100822.63;5036796;28;20033;-83
2023/07/16 01:29:25;;;;;;;10.73;2.78;;;;;;;17.44;74.53;100812.56;5027231;28;20120;-83
2023/07/16 01:31:52;;;;;;;8.23;2.65;;;;;;;17.42;74.80;100813.63;5016966;28;20030;-83
2023/07/16 01:34:18;;;;;;;11.00;2.63;;;;;;;17.44;75.15;100817.03;5021981;28;20527;-83
2023/07/16 01:36:45;;;;;;;7.13;2.58;;;;;;;17.36;76.11;100814.91;5021723;28;20021;-83
2023/07/16 01:39:10;;;;;;;12.23;3.10;;;;;;;17.42;75.76;100811.81;5021274;28;20079;-83
2023/07/16 01:41:36;;;;;;;10.32;2.80;;;;;;;17.46;75.69;100821.34;5026005;28;20408;-83
2023/07/16 01:44:01;;;;;;;10.27;3.42;;;;;;;17.37;76.78;100810.41;5029311;28;20033;-83
2023/07/16 01:46:26;;;;;;;7.28;3.30;;;;;;;17.31;77.27;100807.22;5022933;28;20031;-83
2023/07/16 01:48:52;;;;;;;8.68;3.15;;;;;;;17.22;77.70;100821.19;5027789;28;20438;-83
2023/07/16 01:51:17;;;;;;;13.32;3.38;;;;;;;17.28;77.68;100827.94;5024348;28;20014;-83
2023/07/16 01:53:43;;;;;;;10.05;3.47;;;;;;;17.24;78.11;100823.75;5024500;28;20061;-83
2023/07/16 01:56:08;;;;;;;5.88;3.20;;;;;;;17.23;77.92;100827.41;5017945;28;20029;-83
2023/07/16 01:58:33;;;;;;;6.18;3.42;;;;;;;17.15;78.92;100825.25;5027760;28;20025;-83
2023/07/16 02:00:59;;;;;;;7.95;3.47;;;;;;;17.13;79.60;100826.31;5023806;28;20038;-83
2023/07/16 02:03:24;;;;;;;10.75;3.80;;;;;;;17.11;79.91;100823.72;5025020;28;20033;-83
2023/07/16 02:05:49;;;;;;;6.90;3.03;;;;;;;17.17;79.20;100815.31;5017638;28;20486;-83
2023/07/16 02:08:16;;;;;;;6.78;3.35;;;;;;;17.14;79.57;100820.00;5030746;28;20041;-83
2023/07/16 02:10:42;;;;;;;7.97;3.28;;;;;;;17.10;80.12;100819.34;5020643;28;20033;-83
2023/07/16 02:13:07;;;;;;;6.47;3.50;;;;;;;17.06;80.48;100823.19;5028497;28;20493;-83
2023/07/16 02:15:32;;;;;;;6.70;2.65;;;;;;;17.10;80.22;100822.03;5021109;28;20045;-83
2023/07/16 02:17:57;;;;;;;8.50;3.10;;;;;;;17.08;81.49;100821.28;5022513;28;20029;-83
2023/07/16 02:20:23;;;;;;;6.65;2.70;;;;;;;17.08;81.51;100821.28;5022318;28;20460;-83
2023/07/16 02:22:48;;;;;;;4.95;2.70;;;;;;;17.08;81.12;100823.97;5019447;28;20030;-83
2023/07/16 02:25:13;;;;;;;9.25;3.08;;;;;;;17.09;81.79;100833.69;5033544;28;20034;-82
2023/07/16 02:27:39;;;;;;;13.00;3.20;;;;;;;17.02;82.27;100830.56;5022802;28;20101;-83
2023/07/16 02:30:05;;;;;;;7.63;2.45;;;;;;;17.11;80.94;100834.41;5029693;28;20033;-83
2023/07/16 02:32:31;;;;;;;7.85;2.53;;;;;;;17.14;81.33;100836.03;5034093;28;20404;-82
2023/07/16 02:34:56;;;;;;;6.95;2.72;;;;;;;17.22;80.41;100839.06;5036898;28;20025;-82
2023/07/16 02:37:21;;;;;;;7.53;2.63;;;;;;;17.18;81.11;100841.06;5025403;28;20021;-82
2023/07/16 02:39:47;;;;;;;4.40;2.85;;;;;;;17.17;81.44;100838.50;5016266;28;20377;-82
2023/07/16 02:42:13;;;;;;;4.80;2.83;;;;;;;17.24;80.29;100843.31;5021824;28;20077;-82
2023/07/16 02:44:41;;;;;;;9.43;3.40;;;;;;;17.21;81.41;100848.88;5023405;28;20202;-82
2023/07/16 02:47:07;;;;;;;9.05;2.75;;;;;;;17.15;81.05;100848.44;5016664;28;20352;-82
2023/07/16 02:49:33;;;;;;;5.38;2.40;;;;;;;17.17;81.21;100855.41;5021503;28;20033;-82
2023/07/16 02:51:58;;;;;;;10.32;3.25;;;;;;;17.29;80.94;100845.69;5013810;28;20029;-82
2023/07/16 02:54:23;;;;;;;11.70;3.20;;;;;;;17.08;81.59;100848.84;5028783;28;20125;-82
2023/07/16 02:56:48;;;;;;;7.03;2.70;;;;;;;17.13;81.60;100843.19;5024241;28;20489;-82
2023/07/16 02:59:14;;;;;;;9.20;3.03;;;;;;;17.04;81.36;100847.34;5024589;28;20068;-82
2023/07/16 03:01:39;;;;;;;6.05;2.63;;;;;;;17.04;80.59;100849.16;5021642;28;20017;-82
2023/07/16 03:04:04;;;;;;;9.13;3.20;;;;;;;17.00;81.23;100853.00;5025265;28;20044;-82
2023/07/16 03:06:29;;;;;;;7.47;2.90;;;;;;;17.01;80.60;100852.88;5016031;28;20025;-82
2023/07/16 03:08:55;;;;;;;8.98;2.55;;;;;;;17.06;80.20;100855.25;5030744;28;20022;-82
2023/07/16 03:11:20;;;;;;;8.35;3.70;;;;;;;16.98;80.35;100855.78;5019629;28;20366;-82
2023/07/16 03:13:45;;;;;;;5.20;2.60;;;;;;;16.98;80.32;100861.13;5019072;28;20025;-82
2023/07/16 03:16:11;;;;;;;6.60;2.90;;;;;;;16.95;80.21;100863.97;5021682;28;20025;-82
2023/07/16 03:18:36;;;;;;;7.50;2.58;;;;;;;16.96;78.78;100859.50;5021481;28;20038;-82
2023/07/16 03:21:01;;;;;;;5.45;2.60;;;;;;;16.93;78.71;100865.06;5017012;28;20504;-82
2023/07/16 03:23:26;;;;;;;5.50;3.00;;;;;;;16.80;78.77;100876.53;5010738;28;20049;-82
2023/07/16 03:25:52;;;;;;;7.20;2.85;;;;;;;16.76;78.05;100876.84;5028665;28;20040;-82
2023/07/16 03:28:17;;;;;;;5.50;2.95;;;;;;;16.79;76.29;100876.66;5028338;28;20349;-82
2023/07/16 03:30:50;;;;;;;8.85;3.00;;;;;;;16.77;76.29;100882.06;5032604;28;20063;-81
2023/07/16 03:33:16;;;;;;;9.48;3.22;;;;;;;16.79;75.32;100877.50;5023193;28;20067;-82
2023/07/16 03:35:46;;;;;;;6.38;3.28;;;;;;;16.64;75.00;100875.78;5032240;28;20075;-82
2023/07/16 03:38:12;;;;;;;8.27;3.50;;;;;;;16.66;74.52;100873.88;5037146;28;20485;-82
2023/07/16 03:40:38;;;;;;;9.57;3.88;;;;;;;16.56;74.91;100873.63;5033722;28;20084;-82
2023/07/16 03:43:03;;;;;;;7.13;3.13;;;;;;;16.49;74.66;100887.44;5026698;28;20057;-82
2023/07/16 03:45:29;;;;;;;8.80;3.63;;;;;;;16.52;73.88;100889.94;5030760;28;20078;-82
2023/07/16 03:47:54;;;;;;;6.50;3.33;;;;;;;16.45;74.01;100893.94;5019770;28;20014;-82
2023/07/16 03:50:19;;;;;;;8.57;3.45;;;;;;;16.44;73.95;100892.22;5028748;28;20711;-82
2023/07/16 03:52:45;;;;;;;7.50;3.45;;;;;;;16.39;74.08;100894.34;5026230;28;20029;-82
2023/07/16 03:55:10;;;;;;;7.13;3.63;;;;;;;16.33;74.35;100903.59;5030139;28;20029;-82
2023/07/16 03:57:36;;;;;;;8.90;3.50;;;;;;;16.39;74.60;100900.53;5019294;28;20580;-82
2023/07/16 04:00:04;;;;;;;7.60;3.47;;;;;;;16.29;74.58;100902.91;5035507;28;20024;-82
2023/07/16 04:02:29;;;;;;;8.27;3.38;;;;;;;16.30;74.04;100911.78;5023999;28;20021;-82
2023/07/16 04:04:55;;;;;;;9.00;3.42;;;;;;;16.33;73.68;100914.25;5024481;28;20018;-82
2023/07/16 04:07:20;;;;;;;8.98;3.33;;;;;;;16.34;73.80;100913.31;5015432;28;20029;-82
2023/07/16 04:09:45;;;;;;;7.80;3.28;;;;;;;16.33;73.37;100923.13;5032331;28;20013;-82
2023/07/16 04:12:10;;;;;;;9.73;3.65;;;;;;;16.33;73.48;100925.78;5024516;28;20098;-82
2023/07/16 04:14:36;;;;;;;9.57;3.50;;;;;;;16.31;72.52;100926.81;5020655;28;20026;-82
2023/07/16 04:17:01;;;;;;;9.88;4.05;;;;;;;16.27;71.75;100935.97;5024446;28;20017;-82
2023/07/16 04:19:26;;;;;;;9.07;3.67;;;;;;;16.32;72.16;100940.09;5015131;28;20057;-82
2023/07/16 04:21:51;;;;;;;7.20;3.80;;;;;;;16.31;72.46;100938.34;5026902;28;20029;-81
2023/07/16 04:24:17;;;;;;;8.20;4.70;;;;;;;16.30;72.20;100955.31;5024989;28;20491;-82
2023/07/16 04:26:42;;;;;;;8.35;4.22;;;;;;;16.26;71.82;100951.13;5034424;28;20379;-82
2023/07/16 04:29:07;;;;;;;6.13;3.40;;;;;;;16.37;71.36;100945.13;5026521;28;20035;-82
2023/07/16 04:31:32;;;;;;;8.25;3.63;;;;;;;16.32;71.37;100955.25;5029566;28;20747;-83
2023/07/16 04:33:58;;;;;;;6.72;3.67;;;;;;;16.30;71.27;100951.78;5019973;28;20032;-81
2023/07/16 04:36:23;;;;;;;8.63;3.72;;;;;;;16.29;71.44;100956.28;5024080;28;20021;-82
2023/07/16 04:38:48;;;;;;;9.75;3.85;;;;;;;16.33;70.68;100970.28;5016129;28;20025;-82
2023/07/16 04:41:14;;;;;;;7.72;3.83;;;;;;;16.37;70.51;100968.28;5024187;28;20063;-82
2023/07/16 04:43:39;;;;;;;6.13;3.20;;;;;;;16.35;70.85;100964.84;5020626;28;20099;-82
2023/07/16 04:46:04;;;;;;;8.85;4.72;;;;;;;16.30;70.47;100955.31;5033620;28;20029;-82
2023/07/16 04:48:30;;;;;;;6.30;3.78;;;;;;;16.35;70.93;100964.84;5025807;28;20040;-82
2023/07/16 04:50:55;;;;;;;9.27;4.20;;;;;;;16.37;70.68;100974.50;5029382;28;20428;-82
2023/07/16 04:53:22;;;;;;;8.88;4.10;;;;;;;16.38;70.63;100978.00;5022782;28;20037;-82
2023/07/16 04:55:47;;;;;;;10.13;4.25;;;;;;;16.34;71.03;100977.34;5028957;28;20037;-82
2023/07/16 04:58:12;;;;;;;8.63;3.85;;;;;;;16.36;71.54;100979.91;5021141;28;20680;-82
2023/07/16 05:00:38;;;;;;;9.80;5.07;;;;;;;16.31;70.86;100982.84;5027806;28;20510;-82
2023/07/16 05:03:03;;;;;;;9.90;4.18;;;;;;;16.37;70.00;100981.59;5016459;28;20034;-82
2023/07/16 05:05:28;;;;;;;14.82;4.18;;;;;;;16.41;70.04;100986.66;5024165;28;20356;-82
2023/07/16 05:07:54;;;;;;;7.07;4.07;;;;;;;16.47;69.13;100978.28;5026082;28;20376;-81
2023/07/16 05:10:19;;;;;;;8.77;3.70;;;;;;;16.52;68.92;100976.19;5024584;28;20037;-82
2023/07/16 05:12:44;;;;;;;7.97;4.30;;;;;;;16.54;68.38;100981.44;5013748;28;20025;-81
2023/07/16 05:15:10;;;;;;;8.48;3.85;;;;;;;16.56;68.56;100984.88;5019360;28;20091;-82
2023/07/16 05:17:35;;;;;;;11.00;4.40;;;;;;;16.58;68.85;100982.94;5031538;28;20036;-81
2023/07/16 05:20:00;;;;;;;9.02;4.95;;;;;;;16.56;68.52;100990.22;5022773;28;20028;-82
2023/07/16 05:22:26;;;;;;;10.68;4.20;;;;;;;16.63;68.38;100996.00;5016651;28;20029;-81
2023/07/16 05:24:51;;;;;;;8.68;4.57;;;;;;;16.66;68.31;100982.47;5027948;28;20053;-81
2023/07/16 05:27:16;;;;;;;12.02;5.10;;;;;;;16.72;68.33;101000.81;5019234;28;20017;-82
2023/07/16 05:29:42;;;;;;;13.02;5.03;;;;;;;16.76;68.17;101003.19;5023693;28;20036;-82
2023/07/16 05:32:07;;;;;;;7.82;4.70;;;;;;;16.78;67.68;100998.59;5017861;28;20075;-82
2023/07/16 05:34:33;;;;;;;12.40;4.70;;;;;;;16.84;67.56;101005.38;5025100;28;20159;-82
2023/07/16 05:36:58;;;;;;;10.93;4.55;;;;;;;16.89;66.91;100999.75;5018893;28;20556;-82
2023/07/16 05:39:24;;;;;;;10.75;4.55;;;;;;;16.90;67.15;100991.63;5022974;28;20036;-82
2023/07/16 05:41:50;;;;;;;10.85;4.65;;;;;;;16.94;66.54;101000.31;5021761;28;20091;-82
2023/07/16 05:44:15;;;;;;;8.95;4.60;;;;;;;16.96;67.20;100999.22;5037842;28;20030;-82
2023/07/16 05:46:40;;;;;;;10.43;4.63;;;;;;;16.99;67.77;101003.53;5025689;28;20482;-82
2023/07/16 05:49:06;;;;;;;6.75;4.25;;;;;;;17.08;66.06;101009.13;5015757;28;20032;-82
2023/07/16 05:51:31;;;;;;;7.57;4.07;;;;;;;17.12;66.26;101004.47;5028933;28;20032;-81
2023/07/16 05:53:57;;;;;;;9.82;4.43;;;;;;;17.17;65.74;101010.34;5013994;28;20018;-81
2023/07/16 05:56:22;;;;;;;10.43;5.15;;;;;;;17.21;65.77;101011.03;5025934;28;20459;-81
2023/07/16 05:58:47;;;;;;;9.93;4.60;;;;;;;17.23;65.59;101015.28;5018940;28;20017;-81
2023/07/16 06:01:13;;;;;;;7.20;4.80;;;;;;;17.27;65.64;101022.16;5027196;28;20386;-81
2023/07/16 06:03:38;;;;;;;10.63;5.07;;;;;;;17.23;64.69;101023.31;5024369;28;20391;-81
2023/07/16 06:06:03;;;;;;;12.98;5.63;;;;;;;17.29;65.31;101020.22;5029571;28;20028;-81
2023/07/16 06:08:28;;;;;;;8.90;4.68;;;;;;;17.36;64.12;101033.22;5029526;28;20026;-81
2023/07/16 06:10:54;;;;;;;11.85;4.50;;;;;;;17.40;64.77;101037.41;5043837;28;20021;-82
2023/07/16 06:13:19;;;;;;;15.35;5.25;;;;;;;17.46;64.56;101028.97;5034186;28;20628;-81
2023/07/16 06:15:47;;;;;;;11.68;4.68;;;;;;;17.47;64.37;101041.38;5033002;28;20109;-81
2023/07/16 06:18:12;;;;;;;9.48;4.50;;;;;;;17.54;63.06;101023.97;5029034;28;20524;-81
2023/07/16 06:20:37;;;;;;;8.45;4.65;;;;;;;17.60;63.54;101026.22;5024761;28;20049;-81
2023/07/16 06:23:02;;;;;;;11.50;5.38;;;;;;;17.68;63.25;101031.09;5029491;28;20048;-81
2023/07/16 06:25:28;;;;;;;11.25;4.80;;;;;;;17.79;63.23;101036.59;5026595;28;20025;-81
2023/07/16 06:27:53;;;;;;;12.32;4.93;;;;;;;17.90;63.20;101039.38;5027893;28;20029;-81
2023/07/16 06:30:18;;;;;;;7.00;4.30;;;;;;;17.98;62.70;101052.25;5020318;28;20025;-81
2023/07/16 06:32:43;;;;;;;8.65;4.60;;;;;;;17.96;62.03;101027.44;5031377;28;20392;-81
2023/07/16 06:35:09;;;;;;;10.35;4.50;;;;;;;18.01;62.53;101036.84;5021527;28;20479;-81
2023/07/16 06:37:34;;;;;;;12.18;5.10;;;;;;;18.15;62.40;101038.59;5024055;28;20552;-81
2023/07/16 06:40:00;;;;;;;11.07;4.80;;;;;;;18.21;62.28;101043.50;5027694;28;20408;-81
2023/07/16 06:42:25;;;;;;;8.82;4.90;;;;;;;18.25;61.97;101045.03;5021627;28;20578;-81
2023/07/16 06:44:50;;;;;;;9.07;4.75;;;;;;;18.32;62.52;101040.94;5023033;28;20025;-81
2023/07/16 06:47:15;;;;;;;13.85;5.65;;;;;;;18.41;61.07;101046.63;5014453;28;20477;-81
2023/07/16 06:49:41;;;;;;;13.98;4.80;;;;;;;18.39;61.06;101052.09;5019102;28;20384;-81
2023/07/16 06:52:06;;;;;;;10.48;5.35;;;;;;;18.43;60.41;101060.78;5019380;28;20139;-81
2023/07/16 06:54:32;;;;;;;14.15;5.38;;;;;;;18.50;61.67;101045.97;5030955;28;20032;-81
2023/07/16 06:56:58;;;;;;;9.50;5.25;;;;;;;18.73;60.89;101066.66;5035472;28;20025;-81
2023/07/16 06:59:23;;;;;;;14.73;5.15;;;;;;;18.68;60.00;101063.44;5017115;28;20088;-81
2023/07/16 07:01:48;;;;;;;9.88;5.40;;;;;;;18.74;59.62;101078.25;5013847;28;20033;-80
2023/07/16 07:04:14;;;;;;;11.68;5.25;;;;;;;18.78;60.43;101069.88;5022016;28;20052;-80
2023/07/16 07:06:40;;;;;;;13.50;6.32;;;;;;;18.84;59.43;101072.16;5020454;28;20028;-81
2023/07/16 07:09:05;;;;;;;8.73;4.35;;;;;;;18.97;59.51;101074.78;5018039;28;20167;-80
2023/07/16 07:11:31;;;;;;;12.00;5.90;;;;;;;18.91;59.93;101079.75;5018758;28;20161;-81
2023/07/16 07:13:57;;;;;;;11.88;5.18;;;;;;;18.95;60.13;101078.56;5021408;28;20143;-81
2023/07/16 07:16:23;;;;;;;15.18;6.20;;;;;;;19.04;59.85;101089.47;5014943;28;20469;-81
2023/07/16 07:18:48;;;;;;;12.48;5.07;;;;;;;19.16;59.25;101097.59;5019189;28;20036;-81
2023/07/16 07:21:14;;;;;;;10.10;5.80;;;;;;;19.24;59.14;101096.06;5018590;28;20124;-81
2023/07/16 07:23:39;;;;;;;14.68;6.35;;;;;;;19.29;59.29;101098.41;5021037;28;20029;-81
2023/07/16 07:26:05;;;;;;;9.55;5.13;;;;;;;19.42;58.35;101091.19;5019172;28;20029;-80
2023/07/16 07:28:30;;;;;;;8.60;5.53;;;;;;;19.51;59.08;101103.06;5018247;28;20060;-80
2023/07/16 07:30:56;;;;;;;12.15;6.07;;;;;;;19.53;58.62;101091.25;5010830;28;20050;-80
2023/07/16 07:33:21;;;;;;;10.27;5.55;;;;;;;19.64;58.18;101103.06;5010634;28;20025;-80
2023/07/16 07:35:46;;;;;;;9.50;5.10;;;;;;;19.96;57.76;101101.53;5012465;28;20052;-80
2023/07/16 07:38:11;;;;;;;12.52;5.75;;;;;;;20.46;56.70;101101.28;5028713;28;20021;-80
2023/07/16 07:40:37;;;;;;;12.23;5.63;;;;;;;20.71;55.90;101094.91;5031511;28;20070;-80
2023/07/16 07:43:02;;;;;;;11.32;5.88;;;;;;;20.96;54.15;101108.09;5016000;28;20021;-80
2023/07/16 07:45:27;;;;;;;13.25;6.25;;;;;;;21.24;53.21;101103.19;5028520;28;20447;-80
2023/07/16 07:47:52;;;;;;;11.38;5.75;;;;;;;20.99;53.43;101101.63;5014649;28;20028;-80
2023/07/16 07:50:18;;;;;;;8.52;5.03;;;;;;;21.17;53.66;101110.91;5018770;28;20072;-81
2023/07/16 07:52:43;;;;;;;12.32;5.85;;;;;;;21.51;53.05;101108.22;5011065;28;20056;-81
2023/07/16 07:55:08;;;;;;;10.50;5.88;;;;;;;21.65;52.94;101111.47;5022318;28;20030;-81
2023/07/16 07:57:34;;;;;;;9.52;4.93;;;;;;;21.93;51.50;101111.03;5012562;28;20362;-81
2023/07/16 07:59:59;;;;;;;7.60;4.72;;;;;;;22.23;50.34;101113.84;5018449;28;20113;-81
2023/07/16 08:02:25;;;;;;;8.27;5.53;;;;;;;22.28;50.77;101105.38;5011129;28;20546;-81
2023/07/16 08:04:54;;;;;;;8.90;4.22;;;;;;;22.48;50.18;101106.38;5010538;28;20029;-81
2023/07/16 08:07:20;;;;;;;10.65;5.18;;;;;;;22.71;49.07;101096.25;5011824;28;20477;-81
2023/07/16 08:09:46;;;;;;;10.88;5.43;;;;;;;23.09;48.76;101096.50;5009598;28;20030;-81
2023/07/16 08:12:12;;;;;;;9.55;5.07;;;;;;;23.65;46.89;101114.84;5010078;28;20080;-80
2023/07/16 08:14:37;;;;;;;13.73;5.40;;;;;;;23.73;46.46;101113.28;5027141;28;20091;-81
2023/07/16 08:17:03;;;;;;;15.20;5.15;;;;;;;23.26;47.54;101111.16;5022401;28;20033;-81
2023/07/16 08:19:28;;;;;;;8.60;4.93;;;;;;;23.09;47.77;101099.19;5021102;28;20037;-82
2023/07/16 08:21:53;;;;;;;10.30;5.05;;;;;;;23.09;47.41;101115.38;5021763;28;20043;-81
2023/07/16 08:24:19;;;;;;;10.88;4.97;;;;;;;23.67;48.55;101104.75;5022212;28;20036;-81
2023/07/16 08:26:44;;;;;;;8.90;5.00;;;;;;;24.82;45.70;101118.34;5018770;28;20241;-81
2023/07/16 08:29:10;;;;;;;11.25;4.50;;;;;;;24.92;43.55;101121.03;5023088;28;21225;-81
2023/07/16 08:31:35;;;;;;;9.10;4.13;;;;;;;24.33;43.44;101108.59;5015832;28;20026;-82
2023/07/16 08:34:00;;;;;;;9.15;4.18;;;;;;;24.37;44.20;101110.06;5029765;28;20080;-82
2023/07/16 08:36:25;;;;;;;6.55;3.92;;;;;;;24.69;44.12;101120.53;5027643;28;20035;-81
2023/07/16 08:38:51;;;;;;;10.10;4.60;;;;;;;24.90;44.07;101113.06;5020017;28;20030;-82
2023/07/16 08:41:16;;;;;;;11.25;4.60;;;;;;;25.16;43.49;101124.06;5027596;28;20481;-82
2023/07/16 08:43:45;;;;;;;10.13;4.57;;;;;;;25.23;42.92;101120.75;5022325;28;20029;-81
2023/07/16 08:46:10;;;;;;;9.63;4.30;;;;;;;25.03;42.74;101120.81;5031904;28;20032;-81
2023/07/16 08:48:36;;;;;;;11.88;5.00;;;;;;;23.91;45.12;101131.34;5032075;28;20116;-81
2023/07/16 08:51:02;;;;;;;7.82;4.72;;;;;;;23.61;46.69;101139.53;5018438;28;20029;-81
2023/07/16 08:53:29;;;;;;;8.63;4.20;;;;;;;23.41;46.13;101131.41;5016257;28;20099;-81
2023/07/16 08:55:55;;;;;;;11.68;4.88;;;;;;;23.65;45.17;101128.34;5018093;28;20552;-82
2023/07/16 08:58:23;;;;;;;10.50;4.43;;;;;;;22.71;47.00;101136.69;5015228;28;20551;-81
2023/07/16 09:00:49;;;;;;;8.25;4.57;;;;;;;22.60;47.95;101119.63;5021346;28;20032;-81
2023/07/16 09:03:16;;;;;;;7.82;4.50;;;;;;;22.44;47.79;101148.03;5015950;28;20145;-82
2023/07/16 09:05:43;;;;;;;7.20;4.35;;;;;;;22.69;47.73;101122.50;5016875;28;20046;-81
2023/07/16 09:08:09;;;;;;;6.32;4.32;;;;;;;23.25;46.91;101135.59;5023526;28;20030;-81
2023/07/16 09:10:34;;;;;;;8.55;3.97;;;;;;;23.89;44.83;101140.59;5018599;28;20401;-81
2023/07/16 09:13:00;;;;;;;7.72;4.00;;;;;;;24.53;42.90;101134.66;5020191;28;20049;-81
2023/07/16 09:15:27;;;;;;;8.23;4.43;;;;;;;23.99;44.79;101135.22;5026385;28;20036;-82
2023/07/16 09:17:54;;;;;;;7.93;4.45;;;;;;;24.15;44.15;101135.47;5025754;28;20111;-82
2023/07/16 09:20:19;;;;;;;8.55;4.28;;;;;;;23.89;45.15;101144.16;5019744;28;20029;-81
2023/07/16 09:22:45;;;;;;;6.65;4.10;;;;;;;23.89;45.15;101157.66;5032123;28;20080;-82
2023/07/16 09:25:10;;;;;;;7.28;4.10;;;;;;;23.42;45.78;101151.97;5032884;28;20021;-81
2023/07/16 09:27:36;;;;;;;7.07;3.95;;;;;;;23.12;45.83;101152.00;5025817;28;20060;-81
2023/07/16 09:30:05;;;;;;;8.13;4.25;;;;;;;23.29;47.35;101150.50;5022783;28;20046;-81
2023/07/16 09:32:41;;;;;;;9.80;4.57;;;;;;;23.57;46.33;101151.59;5027768;28;20036;-82
2023/07/16 09:35:10;;;;;;;7.93;4.38;;;;;;;24.40;46.90;101151.16;5026088;28;20472;-81
2023/07/16 09:37:39;;;;;;;6.15;3.75;;;;;;;24.82;43.35;101144.53;5015406;28;20382;-82
2023/07/16 09:40:09;;;;;;;6.65;3.65;;;;;;;24.94;44.31;101154.16;5019044;28;20037;-81
2023/07/16 09:42:40;;;;;;;8.07;4.45;;;;;;;24.71;44.00;101158.22;5031272;28;20523;-82
2023/07/16 09:45:10;;;;;;;10.90;4.40;;;;;;;24.83;45.17;101157.91;5021525;28;20112;-82
2023/07/16 09:47:35;;;;;;;8.23;3.55;;;;;;;24.52;43.28;101168.06;5018756;28;20120;-82
2023/07/16 09:50:02;;;;;;;6.70;3.95;;;;;;;24.17;44.98;101161.38;5028102;28;20104;-82
2023/07/16 09:52:28;;;;;;;10.48;4.00;;;;;;;24.71;43.54;101166.34;5030876;28;20033;-82
2023/07/16 09:54:56;;;;;;;6.07;3.53;;;;;;;24.64;43.51;101172.31;5024309;28;20084;-81
2023/07/16 09:57:25;;;;;;;10.10;4.28;;;;;;;24.55;44.25;101178.59;5025926;28;20473;-81
2023/07/16 09:59:52;;;;;;;7.90;4.07;;;;;;;24.16;43.66;101185.84;5023313;28;20092;-81
2023/07/16 10:02:20;;;;;;;7.80;4.20;;;;;;;23.35;44.85;101185.88;5016816;28;20333;-81
2023/07/16 10:04:45;;;;;;;8.07;4.60;;;;;;;23.21;46.38;101175.47;5026012;28;20017;-81
2023/07/16 10:07:26;;;;;;;7.35;4.18;;;;;;;23.38;46.82;101182.94;5016876;28;20029;-81
2023/07/16 10:09:52;;;;;;;6.53;3.50;;;;;;;23.56;46.42;101182.28;5028234;28;20364;-82
2023/07/16 10:12:20;;;;;;;5.95;3.70;;;;;;;23.79;44.90;101178.41;5034451;28;20026;-82
2023/07/16 10:14:47;;;;;;;7.80;4.03;;;;;;;24.20;46.10;101187.25;5036395;28;20028;-81
2023/07/16 10:17:23;;;;;;;8.32;4.10;;;;;;;24.69;44.99;101194.38;5030759;28;20036;-81
2023/07/16 10:20:00;;;;;;;7.45;3.97;;;;;;;25.05;44.43;101193.75;5025228;28;20419;-81
2023/07/16 10:22:39;;;;;;;11.52;4.97;;;;;;;24.96;44.24;101194.63;5014547;28;20088;-81
2023/07/16 10:25:25;;;;;;;6.88;4.05;;;;;;;25.19;44.49;101204.13;5026207;28;20037;-82
2023/07/16 10:27:52;;;;;;;9.02;4.65;;;;;;;25.22;42.79;101201.09;5041940;28;20025;-81
2023/07/16 10:30:18;;;;;;;8.30;4.45;;;;;;;25.04;43.46;101203.72;5021540;28;20074;-81
2023/07/16 10:32:44;;;;;;;7.13;3.38;;;;;;;24.99;42.98;101211.38;5028357;28;20412;-81
2023/07/16 10:35:10;;;;;;;8.38;4.32;;;;;;;24.85;42.22;101220.81;5019407;28;20025;-81
2023/07/16 10:37:36;;;;;;;9.48;4.25;;;;;;;24.45;43.41;101212.91;5012881;28;20033;-82
2023/07/16 10:40:06;;;;;;;6.50;3.72;;;;;;;24.53;43.61;101217.56;5023296;28;20032;-81
2023/07/16 10:42:32;;;;;;;7.07;3.85;;;;;;;24.63;43.74;101218.44;5022607;28;20094;-81
2023/07/16 10:44:59;;;;;;;8.25;4.07;;;;;;;24.80;42.71;101206.03;5027868;28;20488;-81
2023/07/16 10:47:30;;;;;;;9.32;4.20;;;;;;;25.22;42.73;101211.06;5022429;28;20159;-81
2023/07/16 10:49:56;;;;;;;5.22;4.05;;;;;;;25.59;42.54;101203.78;5024936;28;20045;-81
2023/07/16 10:52:22;;;;;;;6.45;3.85;;;;;;;25.79;40.13;101210.00;5025216;28;20446;-81
2023/07/16 10:54:49;;;;;;;6.78;3.97;;;;;;;25.46;40.84;101230.38;5024916;28;20073;-81
2023/07/16 10:57:16;;;;;;;8.00;3.53;;;;;;;25.30;42.45;101209.34;5026517;28;20036;-80
2023/07/16 10:59:43;;;;;;;8.15;3.72;;;;;;;25.21;41.74;101218.34;5025138;28;20430;-81
2023/07/16 11:02:11;;;;;;;7.38;4.10;;;;;;;24.84;43.22;101219.09;5020347;28;20117;-81
2023/07/16 11:04:37;;;;;;;6.50;3.70;;;;;;;24.52;42.72;101223.97;5025423;28;20019;-82
2023/07/16 11:07:08;;;;;;;7.60;4.03;;;;;;;24.47;43.55;101232.50;5019518;28;20376;-81
2023/07/16 11:09:33;;;;;;;6.07;4.00;;;;;;;24.67;43.27;101236.94;5027374;28;20117;-81
2023/07/16 11:12:08;;;;;;;12.60;3.92;;;;;;;24.43;43.24;101229.28;5025349;28;20375;-81
2023/07/16 11:14:34;;;;;;;7.47;3.75;;;;;;;24.06;43.43;101229.06;5037278;28;20116;-81
2023/07/16 11:17:08;;;;;;;7.63;3.45;;;;;;;24.09;44.24;101241.41;5018072;28;20548;-81